Latest Weather Observations for Kununurra Airport

IDW60801

Issued at 5:33 pm WST Sunday 20 August 2017 (issued every 30 minutes, with the page automatically refreshed every 10 minutes)

About weather observations | Map of weather stations | Latest weather observations for WA | Other Formats
Station Details ID: 002056 Name: KUNUNURRA AERO Lat: -15.78 Lon: 128.71 Height: 44.0 m
Data from the previous 72 hours. | See also: Recent months at Kununurra Airport
Date/Time
WST
Temp
°C
App
Temp
°C
Dew
Point
°C
Rel
Hum
%
Delta-T
°C
Wind Press
QNH
hPa
Press
MSL
hPa
Rain since
9am
mm
Dir  Spd
km/h
Gust
km/h
Spd
kts
Gust
kts
20/05:30pm 30.0 30.9 12.9 35 10.1 CALM 0 0 0 0 1011.4 1011.2 0.0
20/05:00pm 32.8 31.8 10.2 25 13.0 S 6 9 3 5 1011.1 1010.9 0.0
20/04:30pm 35.1 33.9 6.4 17 15.7 ENE 2 7 1 4 1011.0 1010.8 0.0
20/04:00pm 35.3 32.6 5.7 16 16.1 ENE 9 15 5 8 1010.8 1010.6 0.0
20/03:30pm 36.4 34.9 6.6 16 16.5 W 4 9 2 5 1010.9 1010.7 0.0
20/03:00pm 35.5 32.8 5.8 16 16.2 SE 9 19 5 10 1010.9 1010.7 0.0
20/02:30pm 36.1 33.7 7.2 17 16.1 ESE 9 15 5 8 1011.0 1010.8 0.0
20/02:00pm 35.7 32.7 6.0 16 16.2 SSE 11 15 6 8 1011.3 1011.1 0.0
20/01:30pm 35.8 33.0 5.1 15 16.5 ESE 9 17 5 9 1011.7 1011.5 0.0
20/01:00pm 35.1 32.6 6.4 17 15.7 NE 9 15 5 8 1012.2 1012.0 0.0
20/12:30pm 35.2 32.1 7.3 18 15.5 NE 13 20 7 11 1012.6 1012.4 0.0
20/12:00pm 35.1 31.6 7.2 18 15.5 ENE 15 24 8 13 1013.2 1013.0 0.0
20/11:30am 34.9 31.8 7.1 18 15.4 ENE 13 22 7 12 1013.7 1013.5 0.0
20/11:00am 34.1 31.0 7.2 19 14.8 E 13 22 7 12 1014.4 1014.2 0.0
20/10:30am 33.8 29.7 7.7 20 14.5 ESE 19 24 10 13 1014.9 1014.7 0.0
20/10:00am 33.1 29.2 7.1 20 14.3 E 17 24 9 13 1015.3 1015.1 0.0
20/09:30am 32.4 29.1 8.0 22 13.5 E 15 22 8 12 1015.8 1015.6 0.0
20/09:00am 31.2 27.7 7.0 22 13.1 ESE 15 24 8 13 1016.1 1015.9 0.0
20/08:30am 30.5 27.2 6.4 22 12.9 SE 13 17 7 9 1016.1 1015.9 0.0
20/08:00am 28.7 26.6 8.4 28 11.1 SSW 9 13 5 7 1016.1 1015.9 0.0
20/07:30am 28.0 26.9 8.3 29 10.7 SSE 4 7 2 4 1015.9 1015.7 0.0
20/07:00am 25.4 24.9 12.6 45 7.4 SSE 7 9 4 5 1015.6 1015.4 0.0
20/06:30am 21.4 21.6 14.8 66 3.9 SSE 7 11 4 6 1015.3 1015.1 0.0
20/06:00am 17.4 16.9 13.9 80 2.0 SSW 9 11 5 6 1014.9 1014.7 0.0
20/05:30am 16.7 17.8 13.4 81 1.9 CALM 0 4 0 2 1014.6 1014.4 0.0
20/05:00am 17.1 18.2 13.4 79 2.1 CALM 0 6 0 3 1014.3 1014.1 0.0
20/04:30am 16.4 16.4 13.7 84 1.5 NW 6 7 3 4 1014.1 1013.9 0.0
20/04:00am 17.3 17.5 14.6 84 1.6 SSE 7 9 4 5 1013.8 1013.6 0.0
20/03:30am 18.1 18.5 13.8 76 2.5 SSW 4 6 2 3 1013.6 1013.4 0.0
20/03:00am 17.4 18.5 13.5 78 2.2 CALM 0 0 0 0 1013.5 1013.3 0.0
20/02:30am 18.4 19.4 13.3 72 2.9 CALM 0 0 0 0 1013.6 1013.4 0.0
20/02:00am 18.3 19.6 14.0 76 2.5 CALM 0 2 0 1 1013.4 1013.2 0.0
20/01:30am 18.4 18.9 14.1 76 2.5 NNE 4 9 2 5 1013.4 1013.2 0.0
20/01:00am 19.5 20.8 14.1 71 3.1 CALM 0 0 0 0 1013.4 1013.2 0.0
20/12:30am 19.9 21.4 14.7 72 3.0 CALM 0 0 0 0 1013.3 1013.1 0.0
20/12:00am 21.0 22.3 14.2 65 4.0 CALM 0 0 0 0 1013.4 1013.2 0.0
 
Date/Time
WST
Temp
°C
App
Temp
°C
Dew
Point
°C
Rel
Hum
%
Delta-T
°C
Wind Press
QNH
hPa
Press
MSL
hPa
Rain since
9am
mm
Dir  Spd
km/h
Gust
km/h
Spd
kts
Gust
kts
19/11:30pm 20.9 21.8 14.1 65 4.0 NW 2 7 1 4 1013.5 1013.3 0.0
19/11:00pm 20.9 22.5 15.0 69 3.5 CALM 0 0 0 0 1013.7 1013.5 0.0
19/10:30pm 22.1 23.5 14.5 62 4.5 CALM 0 4 0 2 1013.7 1013.5 0.0
19/10:00pm 22.4 23.3 16.2 68 3.8 SSW 6 7 3 4 1013.8 1013.6 0.0
19/09:30pm 23.5 24.3 16.3 64 4.4 SSE 7 9 4 5 1014.0 1013.8 0.0
19/09:00pm 24.9 26.3 17.9 65 4.4 S 7 9 4 5 1014.0 1013.8 0.0
19/08:30pm 25.1 26.1 16.3 58 5.4 S 6 7 3 4 1013.9 1013.7 0.0
19/08:00pm 25.1 26.1 16.3 58 5.4 SSE 6 7 3 4 1013.6 1013.4 0.0
19/07:30pm 24.5 26.5 16.0 59 5.2 CALM 0 0 0 0 1013.4 1013.2 0.0
19/07:00pm 25.2 26.3 13.4 48 6.9 CALM 0 0 0 0 1013.0 1012.8 0.0
19/06:30pm 27.0 27.3 14.4 46 7.6 ESE 6 7 3 4 1012.7 1012.5 0.0
19/06:00pm 28.5 29.5 13.2 39 9.1 CALM 0 0 0 0 1012.3 1012.1 0.0
19/05:42pm 29.9 30.8 12.8 35 10.1 CALM 0 0 0 0 1012.2 1012.0 0.0
19/05:30pm 31.2 31.1 12.1 31 11.2 ESE 4 9 2 5 1012.0 1011.8 0.0
19/05:23pm 31.7 30.7 11.0 28 12.0 E 7 11 4 6 1011.9 1011.7 0.0
19/05:00pm 33.9 32.2 9.9 23 13.8 E 9 11 5 6 1011.6 1011.4 0.0
19/04:41pm 35.0 32.8 9.4 21 14.7 ESE 11 13 6 7 1011.5 1011.3 0.0
19/04:31pm 35.2 33.1 9.6 21 14.7 ESE 11 15 6 8 1011.4 1011.2 0.0
19/04:30pm 35.2 33.1 9.6 21 14.7 ESE 11 15 6 8 1011.4 1011.2 0.0
19/04:00pm 35.9 32.9 9.4 20 15.3 ESE 15 20 8 11 1011.3 1011.1 0.0
19/03:30pm 36.1 32.2 8.8 19 15.6 ESE 19 24 10 13 1011.3 1011.1 0.0
19/03:00pm 36.2 32.9 9.7 20 15.4 E 17 24 9 13 1011.2 1011.0 0.0
19/02:30pm 36.2 34.1 12.4 24 14.4 SE 15 28 8 15 1011.4 1011.2 0.0
19/02:00pm 35.6 33.7 13.1 25 13.7 SE 15 24 8 13 1011.7 1011.5 0.0
19/01:30pm 35.4 34.8 13.5 26 13.4 ESE 9 20 5 11 1012.0 1011.8 0.0
19/01:00pm 34.9 34.3 14.7 29 12.5 ENE 11 20 6 11 1012.5 1012.3 0.0
19/12:30pm 35.0 33.1 14.3 29 12.8 NE 17 28 9 15 1013.0 1012.8 0.0
19/12:00pm 35.1 34.4 14.4 29 12.8 E 11 17 6 9 1013.6 1013.4 0.0
19/11:30am 35.0 33.5 13.2 27 13.2 NE 13 20 7 11 1014.2 1014.0 0.0
19/11:00am 33.9 33.8 14.9 32 11.8 ESE 9 17 5 9 1014.7 1014.5 0.0
19/10:30am 32.8 32.1 15.3 34 10.9 ENE 13 24 7 13 1015.5 1015.3 0.0
19/10:00am 32.0 33.7 18.6 45 8.7 ENE 7 15 4 8 1016.1 1015.9 0.0
19/09:30am 30.6 32.8 19.6 51 7.2 ESE 7 11 4 6 1016.6 1016.4 0.0
19/09:00am 29.0 30.7 20.2 59 5.8 SSE 11 15 6 8 1016.8 1016.7 0.0
19/08:30am 27.3 30.1 21.6 71 3.8 S 9 13 5 7 1016.8 1016.7 0.0
19/08:00am 26.7 30.0 21.9 75 3.2 E 7 9 4 5 1016.7 1016.6 0.0
19/07:30am 24.1 25.8 21.6 86 1.7 SE 15 17 8 9 1016.6 1016.4 0.0
19/07:00am 23.0 26.6 20.5 86 1.6 SSE 2 6 1 3 1016.2 1016.0 0.0
19/06:30am 21.8 24.6 20.4 92 0.9 SSE 6 9 3 5 1015.9 1015.7 0.0
19/06:00am 19.1 20.7 16.9 87 1.3 SE 4 7 2 4 1015.4 1015.2 0.0
19/05:30am 18.7 20.9 16.5 87 1.3 CALM 0 0 0 0 1015.0 1014.8 0.0
19/05:00am 18.7 20.9 16.5 87 1.3 CALM 0 0 0 0 1014.7 1014.5 0.0
19/04:30am 19.1 21.3 16.5 85 1.6 CALM 0 0 0 0 1014.4 1014.2 0.0
19/04:00am 19.0 21.2 16.6 86 1.4 CALM 0 0 0 0 1014.0 1013.8 0.0
19/03:30am 19.8 21.0 16.8 83 1.8 E 6 7 3 4 1013.7 1013.5 0.0
19/03:00am 20.7 23.4 18.6 88 1.3 S 2 7 1 4 1013.6 1013.4 0.0
19/02:30am 20.4 22.1 18.0 86 1.5 SW 6 9 3 5 1013.6 1013.4 0.0
19/02:00am 21.4 23.4 19.1 87 1.5 ESE 7 9 4 5 1013.6 1013.4 0.0
19/01:30am 21.3 24.2 18.3 83 1.9 CALM 0 0 0 0 1013.4 1013.2 0.0
19/01:00am 22.8 25.7 18.3 76 2.8 CALM 0 0 0 0 1013.5 1013.3 0.0
19/12:30am 22.7 24.4 18.0 75 2.9 NW 6 7 3 4 1013.5 1013.3 0.0
19/12:00am 22.8 23.9 18.1 75 2.9 WNW 9 11 5 6 1013.6 1013.4 0.0
 
Date/Time
WST
Temp
°C
App
Temp
°C
Dew
Point
°C
Rel
Hum
%
Delta-T
°C
Wind Press
QNH
hPa
Press
MSL
hPa
Rain since
9am
mm
Dir  Spd
km/h
Gust
km/h
Spd
kts
Gust
kts
18/11:30pm 23.3 24.8 18.0 72 3.3 NW 7 11 4 6 1013.5 1013.3 0.0
18/11:00pm 24.1 25.4 18.5 71 3.5 NNE 9 15 5 8 1013.5 1013.3 0.0
18/10:30pm 24.6 26.6 18.8 70 3.7 ESE 6 7 3 4 1013.2 1013.0 0.0
18/10:00pm 23.4 26.0 17.6 70 3.6 CALM 0 0 0 0 1013.1 1012.9 0.0
18/09:30pm 24.8 27.8 18.5 68 4.0 CALM 0 0 0 0 1013.1 1012.9 0.0
18/09:00pm 25.1 28.0 18.1 65 4.4 CALM 0 0 0 0 1013.1 1012.9 0.0
18/08:30pm 25.1 28.0 18.1 65 4.4 CALM 0 0 0 0 1013.0 1012.8 0.0
18/08:00pm 26.2 28.7 18.1 61 5.1 NW 2 6 1 3 1012.9 1012.7 0.0
18/07:30pm 27.2 28.3 17.9 56 5.9 NNW 9 13 5 7 1012.7 1012.5 0.0
18/07:00pm 27.4 28.2 17.3 54 6.3 NNW 9 11 5 6 1012.3 1012.1 0.0
18/06:48pm 27.6 29.5 16.6 51 6.8 N 2 7 1 4 1012.2 1012.0 0.0
18/06:30pm 28.5 30.8 17.7 52 6.9 N 2 7 1 4 1011.8 1011.6 0.0
18/06:00pm 32.0 32.3 15.9 38 10.1 NNW 9 11 5 6 1011.6 1011.4 0.0
18/05:51pm 32.9 33.1 15.8 35 10.7 NNW 9 11 5 6 1011.5 1011.3 0.0
18/05:38pm 32.3 32.7 16.2 38 10.1 NNW 9 15 5 8 1011.4 1011.2 0.0
18/05:30pm 33.4 33.2 15.8 34 11.0 NNW 11 15 6 8 1011.3 1011.1 0.0
18/05:00pm 33.1 33.4 16.9 38 10.3 N 11 13 6 7 1010.9 1010.7 0.0
18/04:30pm 34.8 34.6 15.7 32 12.0 NNW 11 13 6 7 1010.6 1010.4 0.0
18/04:00pm 35.2 35.1 16.0 31 12.2 N 11 17 6 9 1010.4 1010.2 0.0
18/03:30pm 36.0 35.4 15.7 30 12.8 NNE 13 17 7 9 1010.2 1010.0 0.0
18/03:00pm 36.0 34.5 15.2 29 13.1 ENE 17 24 9 13 1010.2 1010.0 0.0
18/02:59pm 36.0 34.5 15.2 29 13.0 ENE 17 24 9 13 1010.2 1010.0 0.0
18/02:49pm 36.1 35.6 15.8 30 12.8 ENE 13 24 7 13 1010.2 1010.0 0.0
18/02:30pm 36.1 34.6 15.2 28 13.1 ESE 17 28 9 15 1010.2 1010.0 0.0
18/02:00pm 36.3 34.7 14.9 28 13.4 E 17 22 9 12 1010.4 1010.2 0.0
18/01:38pm 35.9 34.1 14.5 27 13.3 NNE 17 28 9 15 1010.6 1010.4 0.0
18/01:30pm 35.9 34.5 15.6 30 12.8 N 17 30 9 16 1010.7 1010.5 0.0
18/01:22pm 36.5 36.4 16.1 29 13.0 NNW 11 19 6 10 1010.7 1010.5 0.0
18/01:00pm 36.3 36.4 16.5 31 12.7 NNE 11 22 6 12 1011.1 1010.9 0.0
18/12:30pm 35.6 34.7 16.8 32 12.0 NNW 17 26 9 14 1011.6 1011.4 0.0
18/12:00pm 34.6 34.3 16.4 33 11.6 NNW 13 19 7 10 1012.1 1011.9 0.0
18/11:30am 36.0 34.9 15.2 29 13.0 NNE 15 24 8 13 1012.6 1012.4 0.0
18/11:00am 33.9 34.5 16.7 35 10.9 NE 9 20 5 11 1013.0 1012.8 0.0
18/10:30am 33.0 34.5 17.6 40 9.9 NNW 6 11 3 6 1013.5 1013.3 0.0
18/10:00am 31.2 32.5 17.5 44 8.7 ENE 7 13 4 7 1014.0 1013.8 0.0
18/09:30am 30.7 32.4 18.4 47 7.9 NE 7 11 4 6 1014.4 1014.2 0.0
18/09:00am 29.2 30.9 18.0 51 7.1 NE 6 9 3 5 1014.5 1014.3 0.0
18/08:30am 27.7 29.8 19.0 59 5.6 NNE 6 9 3 5 1014.5 1014.3 0.0
18/08:00am 26.3 28.5 19.7 67 4.3 NE 7 9 4 5 1014.3 1014.1 0.0
18/07:30am 24.1 27.0 18.3 70 3.7 CALM 0 0 0 0 1014.2 1014.0 0.0
18/07:00am 22.5 24.5 18.7 79 2.4 SSE 6 7 3 4 1013.8 1013.6 0.0
18/06:30am 19.7 21.1 17.3 86 1.5 SW 6 7 3 4 1013.4 1013.2 0.0
18/06:00am 17.5 18.2 15.7 89 1.1 NW 6 7 3 4 1013.1 1012.9 0.0
18/05:30am 17.8 18.5 16.1 90 1.0 E 7 11 4 6 1012.6 1012.4 0.0
18/05:00am 18.0 19.6 14.9 82 1.8 CALM 0 0 0 0 1011.9 1011.7 0.0
18/04:30am 18.9 21.1 16.5 86 1.4 CALM 0 0 0 0 1011.4 1011.2 0.0
18/04:00am 18.4 20.1 15.3 82 1.8 CALM 0 0 0 0 1011.1 1010.9 0.0
18/03:30am 18.1 19.7 15.0 82 1.8 CALM 0 0 0 0 1011.0 1010.8 0.0
18/03:00am 18.8 20.9 16.2 85 1.6 CALM 0 0 0 0 1010.9 1010.7 0.0
18/02:30am 18.8 20.2 14.5 76 2.5 CALM 0 0 0 0 1010.9 1010.7 0.0
18/02:00am 19.7 20.3 15.4 76 2.5 SSW 6 7 3 4 1010.9 1010.7 0.0
18/01:30am 19.3 19.9 15.8 80 2.1 WNW 7 9 4 5 1011.0 1010.8 0.0
18/01:00am 18.9 19.5 15.2 79 2.2 W 6 9 3 5 1011.0 1010.8 0.0
18/12:30am 19.8 20.6 15.9 78 2.3 WSW 6 7 3 4 1011.1 1010.9 0.0
18/12:00am 20.0 21.7 15.2 74 2.8 CALM 0 0 0 0 1011.4 1011.2 0.0
 
Date/Time
WST
Temp
°C
App
Temp
°C
Dew
Point
°C
Rel
Hum
%
Delta-T
°C
Wind Press
QNH
hPa
Press
MSL
hPa
Rain since
9am
mm
Dir  Spd
km/h
Gust
km/h
Spd
kts
Gust
kts
17/11:30pm 20.2 22.0 15.6 75 2.7 CALM 0 0 0 0 1011.6 1011.4 0.0
17/11:00pm 21.1 22.6 14.7 67 3.8 CALM 0 0 0 0 1011.5 1011.3 0.0
17/10:30pm 21.6 23.2 15.0 66 3.9 CALM 0 0 0 0 1011.6 1011.4 0.0
17/10:00pm 21.9 22.9 16.4 71 3.3 WSW 6 6 3 3 1011.7 1011.5 0.0
17/09:30pm 22.6 24.5 15.7 65 4.2 CALM 0 0 0 0 1011.8 1011.6 0.0
17/09:00pm 23.4 25.1 15.2 60 4.9 CALM 0 0 0 0 1011.8 1011.6 0.0
17/08:30pm 24.6 25.3 15.5 57 5.5 NNE 6 7 3 4 1011.5 1011.3 0.0
17/08:00pm 25.4 24.8 15.7 55 5.9 NNE 13 13 7 7 1011.4 1011.2 0.0
17/07:30pm 25.8 26.5 15.5 53 6.3 NNW 6 7 3 4 1011.0 1010.8 0.0
17/07:00pm 27.2 26.7 14.9 47 7.4 N 11 19 6 10 1010.4 1010.2 0.0
17/06:30pm 26.7 28.6 15.7 51 6.7 CALM 0 0 0 0 1009.9 1009.7 0.0
17/06:00pm 28.4 29.8 14.3 42 8.5 CALM 0 0 0 0 1009.6 1009.4 0.0

Other Formats:

Comma delimited format used in spreadsheet applications
http://www.bom.gov.au/fwo/IDW60801/IDW60801.94216.axf

JavaScript Object Notation format (JSON) in row-major order
http://www.bom.gov.au/fwo/IDW60801/IDW60801.94216.json